Pandamatenga, Botswana
Current Conditions -  °F | °C
As of 1:00 PM on Friday 19 Dec 2014 (Local Time) from FYKM Reporting Station
Few Clouds Few Clouds  
Wind Chill: 88°   Ceiling: Unl
Heat Index: 93°   Visibility: 6mi
Dew Point: 70°   Wind: 0mph
Humidity: 55%   Direction: NA
Pressure: 29.94"   Gusts: NA
Location:  18.27°S, 25.65°E
Report Text: FYKM 191100Z 00000KT 9999 FEW030 31/21 Q1014
Loading
Personal Weather Stations






























Interactive Weather Map New forecast layout! Learn more

10-Day Weather Forecast

Advertisements
Track Severe Weather on mobile